Time;durP1;ratioP1;P1;durP2;ratioP2;P2;SDS_P1;SDS_P2;PMS_P1;PMS_P2;Temp;Humidity;BMP_temperature;BMP_pressure;BME280_temperature;BME280_humidity;BME280_pressure;Samples;Min_cycle;Max_cycle;Signal;HPM_P1;HPM_P2
2022/01/30 00:01:37;;;;;;;7.03;2.35;;;;;;;0.65;100.00;100707.99;1646646;87;21796;-87
2022/01/30 00:04:03;;;;;;;8.98;3.20;;;;;;;0.66;100.00;100696.36;1642373;87;21192;-87
2022/01/30 00:06:29;;;;;;;10.60;3.85;;;;;;;0.68;100.00;100687.20;1646115;87;21130;-87
2022/01/30 00:08:54;;;;;;;11.35;3.72;;;;;;;0.70;100.00;100683.02;1646139;87;21090;-88
2022/01/30 00:11:24;;;;;;;16.60;4.37;;;;;;;0.70;100.00;100675.06;1676362;85;20946;-87
2022/01/30 00:13:48;;;;;;;16.50;5.37;;;;;;;0.67;100.00;100670.96;1672609;85;21069;-87
2022/01/30 00:16:17;;;;;;;23.85;6.00;;;;;;;0.66;100.00;100669.84;1677080;85;21097;-87
2022/01/30 00:21:33;;;;;;;23.35;7.95;;;;;;;0.65;100.00;100662.91;1648346;87;21069;-87
2022/01/30 00:26:20;;;;;;;24.50;7.62;;;;;;;0.63;100.00;100663.59;1585274;89;21120;-87
2022/01/30 00:28:46;;;;;;;23.42;7.70;;;;;;;0.60;100.00;100656.03;1585134;89;21198;-88
2022/01/30 00:31:19;;;;;;;30.72;9.08;;;;;;;0.57;100.00;100651.93;1585435;89;20938;-89
2022/01/30 00:33:43;;;;;;;27.35;8.40;;;;;;;0.56;100.00;100647.65;1582087;89;21634;-87
2022/01/30 00:36:09;;;;;;;28.25;8.83;;;;;;;0.55;100.00;100643.34;1569303;89;20943;-87
2022/01/30 00:38:35;;;;;;;31.93;8.88;;;;;;;0.57;100.00;100638.67;1550831;91;20942;-87
2022/01/30 00:41:01;;;;;;;29.30;8.63;;;;;;;0.59;100.00;100639.79;1550431;92;21162;-87
2022/01/30 00:43:27;;;;;;;30.55;8.60;;;;;;;0.59;100.00;100629.19;1550550;91;21640;-88
2022/01/30 00:45:53;;;;;;;24.60;8.18;;;;;;;0.59;100.00;100624.73;1550137;91;21030;-87
2022/01/30 00:48:19;;;;;;;32.67;9.23;;;;;;;0.60;100.00;100630.84;1530840;92;20973;-87
2022/01/30 00:50:45;;;;;;;26.70;7.67;;;;;;;0.61;100.00;100621.86;1550576;91;21786;-87
2022/01/30 00:53:12;;;;;;;24.18;8.30;;;;;;;0.59;100.00;100615.45;1550600;91;21939;-88
2022/01/30 00:55:38;;;;;;;26.95;8.63;;;;;;;0.60;100.00;100616.27;1550603;91;21551;-87
2022/01/30 00:58:04;;;;;;;24.95;7.70;;;;;;;0.59;100.00;100611.95;1604117;87;21039;-87
2022/01/30 01:00:31;;;;;;;24.52;7.35;;;;;;;0.57;100.00;100609.51;1619274;87;21066;-87
2022/01/30 01:02:57;;;;;;;23.20;7.10;;;;;;;0.55;100.00;100609.38;1618942;87;21143;-86
2022/01/30 01:05:23;;;;;;;23.38;7.53;;;;;;;0.54;100.00;100605.11;1619480;88;21117;-87
2022/01/30 01:07:52;;;;;;;22.20;7.45;;;;;;;0.57;100.00;100602.06;1619501;87;21347;-87
2022/01/30 01:13:02;;;;;;;20.97;7.12;;;;;;;0.56;100.00;100593.78;1619053;87;21107;-88
2022/01/30 01:23:36;;;;;;;19.52;6.12;;;;;;;0.55;100.00;100598.27;1681034;83;21627;-88
2022/01/30 01:26:00;;;;;;;16.87;5.78;;;;;;;0.53;100.00;100592.84;1724508;83;21508;-88
2022/01/30 01:28:27;;;;;;;19.57;5.78;;;;;;;0.53;100.00;100585.73;1725217;83;21086;-87
2022/01/30 01:30:54;;;;;;;20.08;5.40;;;;;;;0.52;100.00;100587.23;1725169;83;21159;-88
2022/01/30 01:33:23;;;;;;;15.43;5.28;;;;;;;0.51;100.00;100582.95;1725248;83;20980;-87
2022/01/30 01:35:49;;;;;;;17.20;5.65;;;;;;;0.51;100.00;100584.28;1724898;83;21082;-88
2022/01/30 01:38:15;;;;;;;16.80;5.00;;;;;;;0.53;100.00;100582.23;1725344;83;20964;-88
2022/01/30 01:43:12;;;;;;;12.50;4.42;;;;;;;0.51;100.00;100570.52;1640751;87;21108;-88
2022/01/30 01:45:40;;;;;;;14.30;4.58;;;;;;;0.51;100.00;100570.52;1640806;87;20997;-87
2022/01/30 01:48:14;;;;;;;12.40;4.15;;;;;;;0.50;100.00;100566.72;1640859;86;21834;-88
2022/01/30 01:50:45;;;;;;;18.32;4.10;;;;;;;0.48;100.00;100562.14;1640705;87;21553;-88
2022/01/30 01:53:14;;;;;;;17.80;4.42;;;;;;;0.44;100.00;100555.91;1640841;86;21112;-88
2022/01/30 01:55:43;;;;;;;14.13;4.60;;;;;;;0.45;100.00;100558.05;1641090;87;21109;-88
2022/01/30 01:58:09;;;;;;;11.50;4.60;;;;;;;0.45;100.00;100554.06;1640870;87;21491;-88
2022/01/30 02:00:37;;;;;;;16.90;4.40;;;;;;;0.43;100.00;100549.45;1641071;87;21078;-87
2022/01/30 02:03:03;;;;;;;15.10;4.53;;;;;;;0.40;100.00;100553.82;1640888;86;21202;-88
2022/01/30 02:05:32;;;;;;;12.07;4.22;;;;;;;0.38;100.00;100543.42;1640770;87;21109;-90
2022/01/30 02:26:46;;;;;;;11.68;4.30;;;;;;;0.30;100.00;100513.09;1564789;90;21039;-88
2022/01/30 02:29:13;;;;;;;10.72;3.90;;;;;;;0.31;100.00;100514.72;1565106;90;21055;-88
2022/01/30 02:31:41;;;;;;;13.18;3.45;;;;;;;0.31;100.00;100504.63;1585682;89;21078;-87
2022/01/30 02:34:08;;;;;;;12.68;3.30;;;;;;;0.31;100.00;100496.17;1564720;90;22050;-87
2022/01/30 02:36:49;;;;;;;11.12;3.20;;;;;;;0.34;100.00;100506.89;1565113;90;21582;-87
2022/01/30 02:39:16;;;;;;;9.80;2.95;;;;;;;0.34;100.00;100497.61;1563627;90;21186;-89
2022/01/30 02:41:42;;;;;;;8.70;2.70;;;;;;;0.32;100.00;100492.49;1555594;90;21108;-89
2022/01/30 02:44:18;;;;;;;12.45;2.62;;;;;;;0.28;100.00;100492.58;1555740;92;21061;-88
2022/01/30 02:46:44;;;;;;;9.93;2.60;;;;;;;0.27;100.00;100485.66;1555224;91;21804;-88
2022/01/30 02:49:28;;;;;;;9.03;2.52;;;;;;;0.26;100.00;100495.92;1555612;92;21685;-89
2022/01/30 02:51:48;;;;;;;8.95;2.75;;;;;;;0.25;100.00;100489.00;1551715;91;21077;-88
2022/01/30 02:54:11;;;;;;;9.33;2.58;;;;;;;0.22;100.00;100486.73;1551828;90;21605;-89
2022/01/30 02:56:37;;;;;;;7.28;2.40;;;;;;;0.21;100.00;100481.14;1555468;92;21046;-88
2022/01/30 02:59:03;;;;;;;7.80;3.22;;;;;;;0.19;100.00;100481.83;1555383;92;21601;-89
2022/01/30 03:01:29;;;;;;;13.80;4.08;;;;;;;0.19;100.00;100483.97;1555401;92;21557;-88
2022/01/30 03:03:55;;;;;;;11.75;4.00;;;;;;;0.17;100.00;100472.73;1584004;87;20998;-88
2022/01/30 03:06:21;;;;;;;14.65;4.37;;;;;;;0.16;100.00;100475.09;1597645;89;21608;-88
2022/01/30 03:08:47;;;;;;;15.80;4.72;;;;;;;0.16;100.00;100463.67;1635678;87;20902;-88
2022/01/30 03:11:13;;;;;;;17.17;4.83;;;;;;;0.14;100.00;100457.23;1635768;87;21110;-88
2022/01/30 03:13:38;;;;;;;10.03;4.08;;;;;;;0.15;100.00;100463.38;1703317;83;20975;-87
2022/01/30 03:16:05;;;;;;;10.48;4.40;;;;;;;0.13;100.00;100460.91;1724881;83;20884;-88
2022/01/30 03:18:31;;;;;;;14.03;4.75;;;;;;;0.12;100.00;100464.58;1725283;83;21560;-88
2022/01/30 03:20:58;;;;;;;16.70;5.58;;;;;;;0.11;100.00;100459.45;1720571;83;20967;-87
2022/01/30 03:23:25;;;;;;;15.60;5.55;;;;;;;0.12;100.00;100456.63;1725037;83;21098;-88
2022/01/30 03:25:56;;;;;;;17.15;6.65;;;;;;;0.13;100.00;100452.95;1724971;83;21051;-87
2022/01/30 03:28:19;;;;;;;22.87;6.00;;;;;;;0.13;100.00;100453.47;1723907;83;21035;-87
2022/01/30 03:30:45;;;;;;;14.70;5.17;;;;;;;0.11;100.00;100443.56;1718099;83;21108;-87
2022/01/30 03:33:11;;;;;;;17.75;5.22;;;;;;;0.10;100.00;100451.20;1725293;83;21114;-87
2022/01/30 03:35:38;;;;;;;15.78;5.58;;;;;;;0.08;100.00;100445.27;1725137;83;21023;-87
2022/01/30 03:38:04;;;;;;;18.17;4.85;;;;;;;0.07;100.00;100439.67;1725074;83;20996;-87
2022/01/30 03:40:30;;;;;;;13.32;4.92;;;;;;;0.06;100.00;100443.31;1725184;83;20880;-87
2022/01/30 03:42:56;;;;;;;18.17;4.87;;;;;;;0.04;100.00;100437.42;1725149;83;21005;-87
2022/01/30 03:45:22;;;;;;;19.07;5.17;;;;;;;0.03;100.00;100429.98;1725017;83;20980;-89
2022/01/30 03:47:51;;;;;;;17.67;5.22;;;;;;;0.02;100.00;100427.00;1725472;83;21066;-87
2022/01/30 03:50:16;;;;;;;15.20;4.75;;;;;;;0.02;100.00;100429.65;1724929;83;20960;-86
2022/01/30 03:52:42;;;;;;;18.48;6.22;;;;;;;0.03;100.00;100419.38;1725234;83;20897;-87
2022/01/30 03:55:08;;;;;;;17.73;6.00;;;;;;;-0.01;100.00;100425.55;1725455;83;21444;-88
2022/01/30 03:57:34;;;;;;;30.37;8.10;;;;;;;0.01;100.00;100421.41;1717917;83;21055;-87
2022/01/30 04:00:00;;;;;;;30.97;8.83;;;;;;;-0.01;100.00;100425.55;1725394;83;20985;-87
2022/01/30 04:02:26;;;;;;;30.43;9.07;;;;;;;-0.03;100.00;100420.13;1725277;83;20889;-88
2022/01/30 04:04:51;;;;;;;26.12;8.10;;;;;;;-0.03;100.00;100428.08;1725167;83;20841;-87
2022/01/30 04:07:20;;;;;;;24.85;7.58;;;;;;;-0.03;100.00;100421.46;1725328;83;20972;-87
2022/01/30 04:09:46;;;;;;;26.45;7.67;;;;;;;-0.02;100.00;100413.84;1692114;83;21027;-87
2022/01/30 04:12:14;;;;;;;17.90;5.22;;;;;;;-0.02;100.00;100411.20;1725178;83;21917;-87
2022/01/30 04:14:40;;;;;;;11.35;4.00;;;;;;;-0.03;100.00;100406.89;1725172;83;21508;-87
2022/01/30 04:17:13;;;;;;;13.10;3.45;;;;;;;-0.06;100.00;100398.86;1725405;83;21493;-87
2022/01/30 04:19:39;;;;;;;11.53;3.95;;;;;;;-0.05;100.00;100391.21;1725064;83;21051;-87
2022/01/30 04:22:05;;;;;;;9.80;3.58;;;;;;;-0.05;100.00;100392.53;1725252;83;21007;-87
2022/01/30 04:24:32;;;;;;;9.45;3.83;;;;;;;-0.07;100.00;100383.95;1724817;82;21153;-87
2022/01/30 04:26:57;;;;;;;7.75;3.05;;;;;;;-0.07;100.00;100376.52;1725186;83;21011;-87
2022/01/30 04:29:24;;;;;;;10.35;3.00;;;;;;;-0.07;100.00;100374.69;1725403;83;20991;-87
2022/01/30 04:31:50;;;;;;;12.20;3.42;;;;;;;-0.08;100.00;100367.77;1725095;83;21003;-87
2022/01/30 04:34:18;;;;;;;7.12;3.40;;;;;;;-0.07;100.00;100370.72;1725293;83;21070;-86
2022/01/30 04:37:03;;;;;;;9.40;3.60;;;;;;;-0.08;100.00;100370.41;1724911;83;21079;-86
2022/01/30 04:57:51;;;;;;;20.20;5.70;;;;;;;-0.12;100.00;100343.18;1638195;87;21030;-87
2022/01/30 05:00:33;;;;;;;14.93;5.97;;;;;;;-0.15;100.00;100339.09;1613579;87;21166;-86
2022/01/30 05:03:23;;;;;;;13.45;5.37;;;;;;;-0.15;100.00;100341.73;1634694;87;21066;-86
2022/01/30 05:05:44;;;;;;;16.37;5.97;;;;;;;-0.14;100.00;100355.82;1634587;87;21173;-86
2022/01/30 05:08:03;;;;;;;22.67;6.28;;;;;;;-0.18;100.00;100355.37;1634679;87;21125;-86
2022/01/30 05:10:30;;;;;;;22.27;8.43;;;;;;;-0.20;100.00;100352.12;1638047;87;21185;-86
2022/01/30 05:12:58;;;;;;;24.07;9.23;;;;;;;-0.21;100.00;100349.14;1638336;87;21147;-87
2022/01/30 05:15:27;;;;;;;24.37;9.68;;;;;;;-0.20;100.00;100344.17;1638206;87;21059;-86
2022/01/30 05:17:54;;;;;;;26.60;9.98;;;;;;;-0.21;100.00;100346.49;1638162;87;21079;-86
2022/01/30 05:20:20;;;;;;;20.95;8.65;;;;;;;-0.23;100.00;100341.92;1638422;87;21062;-85
2022/01/30 05:22:47;;;;;;;20.52;7.37;;;;;;;-0.24;100.00;100341.11;1638493;87;21126;-86
2022/01/30 05:25:14;;;;;;;16.42;6.05;;;;;;;-0.22;100.00;100337.44;1638363;87;22580;-86
2022/01/30 05:27:41;;;;;;;15.95;5.55;;;;;;;-0.24;100.00;100337.62;1639339;87;21216;-86
2022/01/30 05:30:08;;;;;;;13.60;4.83;;;;;;;-0.26;100.00;100333.86;1639009;87;21098;-86
2022/01/30 05:32:35;;;;;;;12.78;4.60;;;;;;;-0.25;100.00;100314.30;1638973;87;21487;-87
2022/01/30 05:35:01;;;;;;;13.43;4.35;;;;;;;-0.25;100.00;100318.27;1638872;87;21143;-86
2022/01/30 05:37:27;;;;;;;11.68;4.50;;;;;;;-0.24;100.00;100315.95;1638825;87;20972;-86
2022/01/30 05:39:54;;;;;;;15.50;5.30;;;;;;;-0.21;100.00;100316.55;1667131;86;21082;-86
2022/01/30 05:42:20;;;;;;;17.25;6.78;;;;;;;-0.22;100.00;100311.77;1610961;89;21025;-87
2022/01/30 05:44:59;;;;;;;19.40;6.33;;;;;;;-0.17;100.00;100311.20;1634382;87;22148;-86
2022/01/30 05:47:24;;;;;;;14.25;5.92;;;;;;;-0.13;100.00;100312.42;1630244;87;21075;-86
2022/01/30 05:49:44;;;;;;;14.15;5.72;;;;;;;-0.10;100.00;100310.20;1630657;87;21155;-87
2022/01/30 05:52:10;;;;;;;13.70;5.20;;;;;;;-0.07;100.00;100320.39;1606596;89;21914;-87
2022/01/30 05:54:36;;;;;;;12.90;5.55;;;;;;;-0.06;100.00;100313.26;1620460;87;20903;-86
2022/01/30 05:57:01;;;;;;;15.60;5.28;;;;;;;0.05;100.00;100311.89;1633442;87;20927;-86
2022/01/30 05:59:27;;;;;;;14.53;5.35;;;;;;;0.21;100.00;100310.23;1633291;87;20900;-88
2022/01/30 06:01:53;;;;;;;16.90;5.58;;;;;;;0.29;100.00;100299.94;1633374;87;21285;-89
2022/01/30 06:04:19;;;;;;;13.83;5.53;;;;;;;0.41;100.00;100302.31;1633416;87;21096;-88
2022/01/30 06:06:50;;;;;;;10.65;4.90;;;;;;;0.54;100.00;100289.62;1633356;86;21002;-89
2022/01/30 06:11:42;;;;;;;10.43;4.45;;;;;;;0.98;100.00;100289.03;1633099;87;21107;-90
2022/01/30 06:14:08;;;;;;;9.58;4.42;;;;;;;1.23;100.00;100295.03;1633446;87;22612;-90
2022/01/30 06:16:34;;;;;;;9.65;4.28;;;;;;;1.58;100.00;100291.61;1647694;86;21348;-89
2022/01/30 06:19:01;;;;;;;13.13;4.50;;;;;;;1.98;100.00;100286.17;1690436;84;21000;-89
2022/01/30 06:21:28;;;;;;;17.35;6.08;;;;;;;2.50;100.00;100280.29;1690405;84;21078;-89
2022/01/30 06:23:54;;;;;;;12.70;5.25;;;;;;;3.10;100.00;100270.52;1690375;84;21615;-89
2022/01/30 06:26:20;;;;;;;10.78;4.55;;;;;;;3.58;100.00;100263.97;1688691;83;21045;-90
2022/01/30 06:28:46;;;;;;;10.80;4.25;;;;;;;4.21;100.00;100254.81;1688887;84;21078;-89
2022/01/30 06:31:13;;;;;;;9.88;4.67;;;;;;;4.88;100.00;100253.31;1688543;85;21762;-90
2022/01/30 06:33:38;;;;;;;9.25;4.15;;;;;;;5.83;100.00;100256.19;1688534;85;21488;-89
2022/01/30 06:36:05;;;;;;;10.15;4.72;;;;;;;6.87;100.00;100256.48;1688570;84;20965;-89
2022/01/30 06:38:30;;;;;;;8.85;4.25;;;;;;;7.12;100.00;100234.64;1688715;85;21041;-89
2022/01/30 06:40:56;;;;;;;8.65;4.83;;;;;;;8.13;100.00;100234.30;1688643;85;21053;-88
2022/01/30 06:43:23;;;;;;;10.82;5.12;;;;;;;9.60;100.00;100221.45;1688499;85;20968;-87
2022/01/30 06:45:49;;;;;;;9.60;4.65;;;;;;;10.96;91.96;100215.23;1688277;85;21112;-91
2022/01/30 06:48:21;;;;;;;9.50;4.72;;;;;;;12.04;77.80;100221.93;1688569;84;20855;-90
2022/01/30 06:50:47;;;;;;;12.37;5.37;;;;;;;13.11;65.05;100205.96;1688931;84;21109;-87
2022/01/30 06:53:13;;;;;;;9.53;5.22;;;;;;;13.26;58.10;100202.32;1688821;85;21020;-89
2022/01/30 06:55:42;;;;;;;14.75;6.10;;;;;;;13.12;59.40;100190.81;1688631;84;20968;-89
2022/01/30 06:58:13;;;;;;;10.18;5.10;;;;;;;13.63;56.06;100186.73;1688184;83;32720;-90
2022/01/30 07:00:39;;;;;;;13.93;6.03;;;;;;;13.32;53.52;100186.28;1629195;87;21086;-90
2022/01/30 07:03:05;;;;;;;12.73;5.35;;;;;;;12.62;51.98;100169.92;1629032;88;21613;-89
2022/01/30 07:05:31;;;;;;;13.13;5.95;;;;;;;12.49;52.03;100184.08;1629362;88;21147;-89
2022/01/30 07:07:57;;;;;;;10.48;5.78;;;;;;;11.91;48.74;100172.59;1629134;88;20919;-90
2022/01/30 07:10:24;;;;;;;13.43;5.78;;;;;;;11.19;49.61;100171.25;1629443;88;20978;-88
2022/01/30 07:12:50;;;;;;;8.50;4.53;;;;;;;10.49;50.30;100168.38;1629290;88;21542;-89
2022/01/30 07:15:16;;;;;;;12.18;4.95;;;;;;;9.71;47.74;100167.97;1629342;88;20880;-90
2022/01/30 07:17:43;;;;;;;10.60;5.08;;;;;;;8.84;49.94;100170.22;1629159;88;21136;-88
2022/01/30 07:20:10;;;;;;;9.90;5.33;;;;;;;7.87;50.83;100162.64;1607456;88;21105;-87
2022/01/30 07:22:36;;;;;;;12.18;4.40;;;;;;;6.98;51.27;100166.38;1629320;88;21007;-89
2022/01/30 07:25:07;;;;;;;12.35;4.35;;;;;;;6.32;52.70;100170.16;1626117;87;21638;-89
2022/01/30 07:27:37;;;;;;;9.58;4.62;;;;;;;5.73;54.34;100169.61;1621711;88;21051;-88
2022/01/30 07:30:05;;;;;;;12.55;4.33;;;;;;;5.27;55.60;100164.17;1621903;88;21319;-87
2022/01/30 07:32:31;;;;;;;13.90;4.37;;;;;;;4.86;56.59;100163.28;1622068;88;21075;-87
2022/01/30 07:37:28;;;;;;;12.75;4.70;;;;;;;4.46;60.24;100159.94;1544361;92;21490;-87
2022/01/30 07:39:58;;;;;;;15.93;4.83;;;;;;;4.23;62.31;100154.56;1544439;92;21089;-88
2022/01/30 07:42:22;;;;;;;9.95;3.50;;;;;;;4.13;63.89;100146.33;1541390;92;21114;-88
2022/01/30 07:44:48;;;;;;;15.90;5.97;;;;;;;3.96;65.36;100138.16;1519971;94;21297;-89
2022/01/30 07:47:14;;;;;;;17.57;5.85;;;;;;;3.68;66.08;100132.91;1554821;92;20950;-88
2022/01/30 07:49:40;;;;;;;10.50;4.58;;;;;;;3.68;66.08;100132.91;1554992;92;23080;-89
2022/01/30 07:52:08;;;;;;;11.70;4.35;;;;;;;3.50;69.69;100129.77;1612044;89;20943;-88
2022/01/30 07:54:35;;;;;;;15.43;4.83;;;;;;;3.50;69.69;100129.77;1607009;89;21384;-88
2022/01/30 07:57:02;;;;;;;11.25;4.03;;;;;;;3.45;70.56;100130.95;1606232;89;21105;-89
2022/01/30 07:59:28;;;;;;;12.13;3.60;;;;;;;3.31;70.75;100122.30;1612782;88;21572;-88
2022/01/30 08:01:56;;;;;;;10.38;3.77;;;;;;;3.13;70.96;100114.34;1612848;89;21321;-87
2022/01/30 08:04:22;;;;;;;11.60;4.10;;;;;;;2.96;71.45;100110.12;1582257;90;21719;-88
2022/01/30 08:06:48;;;;;;;7.83;3.80;;;;;;;2.84;75.88;100103.91;1612861;89;21180;-88
2022/01/30 08:09:15;;;;;;;11.48;3.80;;;;;;;2.79;74.29;100099.23;1612823;89;20967;-88
2022/01/30 08:11:41;;;;;;;11.03;4.50;;;;;;;2.70;77.62;100089.92;1614913;88;21095;-86
2022/01/30 08:14:07;;;;;;;10.30;4.00;;;;;;;2.76;79.94;100090.36;1615171;88;21588;-86
2022/01/30 08:16:33;;;;;;;12.35;4.85;;;;;;;2.84;80.77;100079.96;1615185;88;21021;-86
2022/01/30 08:18:58;;;;;;;11.38;4.72;;;;;;;2.95;79.28;100076.05;1615169;88;21099;-85
2022/01/30 08:21:24;;;;;;;12.35;4.72;;;;;;;3.04;77.73;100077.89;1615108;88;21016;-85
2022/01/30 08:23:50;;;;;;;12.23;4.33;;;;;;;3.12;79.43;100075.45;1615005;88;21442;-86
2022/01/30 08:26:16;;;;;;;13.03;5.00;;;;;;;3.19;82.10;100076.17;1602254;88;20984;-86
2022/01/30 08:28:42;;;;;;;11.40;4.15;;;;;;;3.33;82.27;100068.31;1599978;88;20929;-86
2022/01/30 08:31:08;;;;;;;17.12;5.45;;;;;;;3.31;79.87;100066.91;1600102;89;21168;-86
2022/01/30 08:33:34;;;;;;;15.43;4.90;;;;;;;3.31;79.87;100066.91;1612932;85;21102;-85
2022/01/30 08:35:59;;;;;;;15.78;4.62;;;;;;;3.22;78.14;100048.29;1673111;85;20871;-86
2022/01/30 08:38:25;;;;;;;17.87;5.25;;;;;;;3.18;78.09;100042.61;1673299;85;20895;-86
2022/01/30 08:40:51;;;;;;;12.63;4.85;;;;;;;3.19;80.03;100046.36;1672941;84;21668;-86
2022/01/30 08:43:21;;;;;;;16.62;4.75;;;;;;;3.23;80.72;100040.06;1673194;85;21088;-87
2022/01/30 08:45:46;;;;;;;20.77;5.08;;;;;;;3.24;81.01;100043.56;1672722;84;21584;-86
2022/01/30 08:48:12;;;;;;;10.08;4.00;;;;;;;3.30;81.42;100032.01;1673325;85;20915;-86
2022/01/30 08:50:38;;;;;;;10.63;3.87;;;;;;;3.30;82.88;100033.34;1673196;85;20966;-86
2022/01/30 08:53:04;;;;;;;14.47;5.05;;;;;;;3.26;81.30;100028.95;1673104;85;21077;-86
2022/01/30 08:55:30;;;;;;;16.55;5.05;;;;;;;3.18;82.21;100026.64;1649976;85;21089;-85
2022/01/30 09:00:25;;;;;;;14.83;5.03;;;;;;;3.36;87.49;100015.12;1617687;88;20986;-86
2022/01/30 09:02:51;;;;;;;16.70;5.30;;;;;;;3.39;88.56;100008.02;1618025;88;21590;-86
2022/01/30 09:05:18;;;;;;;17.20;5.10;;;;;;;3.50;89.70;100008.57;1617856;88;21061;-84
2022/01/30 09:07:44;;;;;;;14.80;4.30;;;;;;;3.66;93.24;100008.95;1595546;88;21101;-88
2022/01/30 09:10:11;;;;;;;12.43;4.10;;;;;;;3.71;92.93;100001.09;1617826;88;21019;-87
2022/01/30 09:12:38;;;;;;;16.45;4.83;;;;;;;3.77;95.61;100000.98;1618197;88;21113;-87
2022/01/30 09:15:14;;;;;;;15.28;5.30;;;;;;;3.87;95.23;99998.54;1618640;87;21176;-88
2022/01/30 09:17:39;;;;;;;11.10;4.25;;;;;;;4.03;94.63;99986.90;1642021;87;21072;-87
2022/01/30 09:20:07;;;;;;;9.15;4.20;;;;;;;4.19;96.42;99975.55;1592411;89;21093;-88
2022/01/30 09:22:33;;;;;;;12.93;3.90;;;;;;;4.43;98.59;99977.66;1592311;89;21612;-89
2022/01/30 09:24:59;;;;;;;10.30;3.12;;;;;;;4.61;94.16;99964.69;1619227;86;21037;-88
2022/01/30 09:27:25;;;;;;;12.30;3.45;;;;;;;4.78;91.30;99966.10;1619338;88;21034;-89
2022/01/30 09:29:51;;;;;;;12.68;4.28;;;;;;;4.78;87.17;99950.89;1619466;87;21116;-90
2022/01/30 09:32:17;;;;;;;11.40;4.50;;;;;;;4.80;88.19;99942.66;1619417;88;21254;-89
2022/01/30 09:34:44;;;;;;;7.62;2.92;;;;;;;4.88;89.94;99944.95;1619152;88;21145;-90
2022/01/30 09:37:10;;;;;;;9.33;3.10;;;;;;;5.05;91.35;99928.16;1622545;87;21119;-88
2022/01/30 09:39:37;;;;;;;9.80;4.05;;;;;;;5.05;87.63;99926.29;1619185;88;21269;-88
2022/01/30 09:42:05;;;;;;;11.33;4.00;;;;;;;5.05;87.55;99919.61;1619329;88;21043;-87
2022/01/30 09:44:40;;;;;;;7.80;3.20;;;;;;;5.04;89.37;99914.00;1619265;88;21170;-88
2022/01/30 09:47:16;;;;;;;10.40;3.45;;;;;;;4.90;87.23;99910.00;1617055;88;21510;-89
2022/01/30 09:49:51;;;;;;;9.90;3.58;;;;;;;4.86;90.92;99915.02;1541909;91;21105;-88
2022/01/30 09:52:20;;;;;;;13.95;4.65;;;;;;;4.93;91.71;99905.52;1559267;91;21120;-88
2022/01/30 09:54:48;;;;;;;9.43;3.67;;;;;;;5.03;93.61;99896.37;1560545;91;21258;-88
2022/01/30 09:57:14;;;;;;;9.15;3.10;;;;;;;5.09;90.44;99890.06;1583942;89;21216;-88
2022/01/30 09:59:40;;;;;;;8.48;3.40;;;;;;;5.13;91.30;99877.03;1611985;87;21026;-87
2022/01/30 10:02:09;;;;;;;12.60;3.47;;;;;;;5.09;88.81;99869.20;1611967;89;21140;-87
2022/01/30 10:04:37;;;;;;;9.30;2.95;;;;;;;5.10;90.50;99868.17;1590859;89;21152;-89
2022/01/30 10:07:12;;;;;;;10.68;3.85;;;;;;;5.13;87.65;99857.80;1611881;89;21554;-88
2022/01/30 10:09:37;;;;;;;9.00;3.33;;;;;;;5.07;90.48;99854.77;1608337;89;21057;-88
2022/01/30 10:12:16;;;;;;;13.10;3.67;;;;;;;5.16;91.78;99851.98;1611600;89;21069;-81
2022/01/30 10:15:06;;;;;;;7.90;3.08;;;;;;;5.15;91.99;99850.90;1611739;89;21042;-81
2022/01/30 10:17:43;;;;;;;8.13;2.67;;;;;;;5.26;92.20;99838.50;1612186;89;21161;-81
2022/01/30 10:20:21;;;;;;;13.30;4.80;;;;;;;5.32;92.89;99839.66;1608922;89;21074;-81
2022/01/30 10:23:01;;;;;;;11.12;3.72;;;;;;;5.42;92.81;99823.80;1611884;89;21184;-81
2022/01/30 10:25:32;;;;;;;10.68;3.85;;;;;;;5.59;93.71;99818.44;1613147;87;21039;-80
2022/01/30 10:28:14;;;;;;;8.80;3.60;;;;;;;5.66;90.36;99817.72;1659146;86;21109;-80
2022/01/30 10:30:53;;;;;;;9.83;3.70;;;;;;;5.56;89.85;99804.73;1685854;85;21016;-80
2022/01/30 10:33:23;;;;;;;11.93;3.58;;;;;;;5.45;88.72;99797.13;1624653;86;21597;-81
2022/01/30 10:35:58;;;;;;;8.78;3.15;;;;;;;5.45;88.79;99807.81;1622424;87;22198;-80
2022/01/30 10:38:34;;;;;;;9.20;3.25;;;;;;;5.25;89.69;99788.28;1626390;87;21003;-81
2022/01/30 10:41:11;;;;;;;8.60;3.10;;;;;;;5.09;89.14;99783.25;1626266;87;21510;-80
2022/01/30 10:46:46;;;;;;;6.28;3.12;;;;;;;4.73;93.53;99769.30;1551828;92;21165;-81
2022/01/30 10:49:16;;;;;;;11.45;3.67;;;;;;;4.68;96.30;99758.56;1532370;92;21144;-80
2022/01/30 10:52:01;;;;;;;7.33;3.00;;;;;;;4.68;98.62;99737.22;1551850;92;21535;-81
2022/01/30 10:54:33;;;;;;;7.40;3.37;;;;;;;4.68;97.16;99759.09;1556301;92;21184;-80
2022/01/30 10:57:11;;;;;;;6.78;2.80;;;;;;;4.60;97.38;99759.48;1536312;92;21658;-81
2022/01/30 10:59:43;;;;;;;9.93;3.10;;;;;;;4.55;95.94;99746.84;1556359;91;21182;-80
2022/01/30 11:02:18;;;;;;;7.37;3.27;;;;;;;4.59;97.96;99744.00;1556007;92;21569;-81
2022/01/30 11:04:47;;;;;;;8.58;3.22;;;;;;;4.63;98.38;99745.12;1556052;91;21117;-81
2022/01/30 11:07:20;;;;;;;9.85;3.15;;;;;;;4.63;96.51;99742.98;1556125;91;21141;-81
2022/01/30 11:10:06;;;;;;;9.73;3.45;;;;;;;4.60;97.40;99738.94;1556026;91;21044;-81
2022/01/30 11:15:15;;;;;;;7.80;3.10;;;;;;;4.57;97.03;99728.75;1572917;91;21044;-81
2022/01/30 11:17:26;;;;;;;9.45;4.08;;;;;;;4.60;98.99;99717.59;1568591;91;21108;-81
2022/01/30 11:19:56;;;;;;;10.32;4.10;;;;;;;4.65;100.00;99715.55;1573543;91;21575;-81
2022/01/30 11:22:24;;;;;;;10.15;3.95;;;;;;;4.69;98.39;99707.33;1572984;91;21414;-81
2022/01/30 11:25:12;;;;;;;10.55;3.83;;;;;;;4.65;98.93;99709.68;1553278;91;21065;-81
2022/01/30 11:27:42;;;;;;;11.80;3.77;;;;;;;4.62;100.00;99708.00;1555680;92;22682;-81
2022/01/30 11:30:10;;;;;;;10.68;3.65;;;;;;;4.62;100.00;99700.83;1555564;92;21097;-81
2022/01/30 11:32:38;;;;;;;12.15;4.45;;;;;;;4.68;100.00;99700.38;1556023;92;21006;-81
2022/01/30 11:35:05;;;;;;;9.73;4.30;;;;;;;4.69;100.00;99703.33;1556126;92;21141;-81
2022/01/30 11:37:33;;;;;;;10.08;3.77;;;;;;;4.82;100.00;99696.30;1556102;92;21156;-81
2022/01/30 11:40:02;;;;;;;8.90;4.10;;;;;;;4.85;100.00;99698.48;1536220;91;21216;-82
2022/01/30 11:42:41;;;;;;;21.68;4.75;;;;;;;4.84;100.00;99700.08;1549710;92;21062;-81
2022/01/30 11:47:55;;;;;;;11.88;4.22;;;;;;;4.89;100.00;99700.16;1491475;96;21098;-80
2022/01/30 11:50:30;;;;;;;12.50;4.45;;;;;;;4.89;100.00;99686.82;1523003;92;21075;-79
2022/01/30 11:53:06;;;;;;;11.25;4.53;;;;;;;4.82;100.00;99684.30;1590772;89;21205;-80
2022/01/30 11:55:58;;;;;;;13.83;5.22;;;;;;;4.81;100.00;99680.02;1608705;89;21012;-80
2022/01/30 11:58:41;;;;;;;11.95;4.30;;;;;;;4.73;100.00;99673.22;1608696;89;21032;-81
2022/01/30 12:04:09;;;;;;;13.25;4.83;;;;;;;4.61;100.00;99659.70;1581356;90;21081;-80
2022/01/30 12:06:44;;;;;;;12.90;4.80;;;;;;;4.65;100.00;99644.84;1543629;92;22164;-81
2022/01/30 12:09:27;;;;;;;16.30;5.70;;;;;;;4.65;100.00;99647.50;1543771;93;21629;-80
2022/01/30 12:11:57;;;;;;;12.40;4.60;;;;;;;4.57;100.00;99639.37;1543719;93;21048;-81
2022/01/30 12:14:29;;;;;;;14.00;4.90;;;;;;;4.51;100.00;99624.34;1543965;93;21129;-80
2022/01/30 12:17:02;;;;;;;14.35;4.78;;;;;;;4.46;100.00;99630.39;1544045;93;21737;-80
2022/01/30 12:19:42;;;;;;;10.50;4.80;;;;;;;4.40;100.00;99618.03;1543916;92;21102;-81
2022/01/30 12:22:25;;;;;;;10.15;5.22;;;;;;;4.33;100.00;99620.06;1543882;93;21066;-80
2022/01/30 12:24:54;;;;;;;14.60;5.10;;;;;;;4.24;100.00;99628.99;1543895;93;21559;-80
2022/01/30 12:27:20;;;;;;;11.90;5.35;;;;;;;4.09;100.00;99627.41;1549561;91;21055;-80
2022/01/30 12:29:51;;;;;;;72.40;18.27;;;;;;;4.02;100.00;99614.21;1550908;92;21148;-81
2022/01/30 12:32:28;;;;;;;21.45;7.10;;;;;;;4.01;100.00;99609.94;1550730;92;21367;-81
2022/01/30 12:35:03;;;;;;;12.70;5.08;;;;;;;3.96;100.00;99602.38;1550776;92;21020;-80
2022/01/30 12:37:37;;;;;;;16.05;5.37;;;;;;;3.90;100.00;99605.48;1551074;92;21052;-81
2022/01/30 12:40:16;;;;;;;14.85;4.50;;;;;;;3.83;100.00;99609.64;1550727;92;21126;-80
2022/01/30 12:42:44;;;;;;;13.53;4.87;;;;;;;3.80;100.00;99602.66;1506804;95;21211;-81